X  Close Metar Aviation Weather Data     KBWI Baltimore/Washington International Thurgood Marshall Airport
Temperature
39°F Temperature
36°F Dewpoint
87% Humidity



Wind
9 MPH
14 KM/H
4 M/S
8 KTS



80°
E
Current Conditions

Light Rain, Mist Light Rain, Mist
Pressure 1028.78 (hPa) - 30.38 (inHg)
Visibility 6 (mile) - 9.7 (km)
Airport
Airport-code KBWI

Location: Baltimore/Washington International Thurgood Marshall Airport
Distance: 10 (mi)

Metar:
KBWI 020754Z 08008KT 6SM -RA BR OVC065 04/02 A3038 RMK AO2 SLP287 P0000 T00440022 $

Time: 03-02-2024 2:54 am EST